Time;durP1;ratioP1;P1;durP2;ratioP2;P2;SDS_P1;SDS_P2;PMS_P1;PMS_P2;Temp;Humidity;BMP_temperature;BMP_pressure;BME280_temperature;BME280_humidity;BME280_pressure;Samples;Min_cycle;Max_cycle;Signal;HPM_P1;HPM_P2
2022/04/05 00:01:44;;;;;;;8.80;7.53;;;5.60;99.90;;;;;;5032763;28;20866;-70
2022/04/05 00:04:11;;;;;;;6.60;5.93;;;5.60;99.90;;;;;;5032550;28;20457;-70
2022/04/05 00:06:39;;;;;;;10.27;7.27;;;5.70;99.90;;;;;;5032283;28;20527;-70
2022/04/05 00:09:05;;;;;;;7.83;6.03;;;5.70;99.90;;;;;;5032635;28;20477;-70
2022/04/05 00:11:32;;;;;;;8.80;6.83;;;5.70;99.90;;;;;;5032743;28;20453;-70
2022/04/05 00:14:00;;;;;;;6.83;6.10;;;5.70;99.90;;;;;;5032465;28;21008;-70
2022/04/05 00:16:26;;;;;;;8.30;6.67;;;5.70;99.90;;;;;;5033256;28;20457;-70
2022/04/05 00:18:53;;;;;;;7.83;6.70;;;5.70;99.90;;;;;;5032086;28;20489;-70
2022/04/05 00:21:20;;;;;;;7.23;6.30;;;5.70;99.90;;;;;;5031994;28;20519;-70
2022/04/05 00:23:48;;;;;;;7.70;5.67;;;5.70;99.90;;;;;;5032023;28;20457;-71
2022/04/05 00:26:14;;;;;;;9.90;6.80;;;5.70;99.90;;;;;;5032264;28;20453;-70
2022/04/05 00:28:41;;;;;;;7.33;6.63;;;5.70;99.90;;;;;;5031929;28;20473;-70
2022/04/05 00:31:08;;;;;;;8.73;6.73;;;5.70;99.90;;;;;;5031802;28;20848;-70
2022/04/05 00:33:34;;;;;;;7.73;6.90;;;5.70;99.90;;;;;;5031668;28;20500;-70
2022/04/05 00:36:01;;;;;;;7.93;7.13;;;5.70;99.90;;;;;;5032470;28;20503;-70
2022/04/05 00:38:28;;;;;;;7.30;6.60;;;5.70;99.90;;;;;;5032284;28;21061;-70
2022/04/05 00:40:56;;;;;;;7.33;6.30;;;5.80;99.90;;;;;;5024323;28;20453;-70
2022/04/05 00:43:22;;;;;;;6.90;6.07;;;5.80;99.90;;;;;;5031214;28;20542;-70
2022/04/05 00:45:49;;;;;;;7.10;6.40;;;5.80;99.90;;;;;;5032063;28;20465;-71
2022/04/05 00:48:25;;;;;;;7.50;6.70;;;5.80;99.90;;;;;;5031407;28;20477;-70
2022/04/05 00:50:51;;;;;;;9.83;6.23;;;5.80;99.90;;;;;;5031845;28;20453;-70
2022/04/05 00:53:18;;;;;;;11.00;6.97;;;5.80;99.90;;;;;;5031346;28;20445;-70
2022/04/05 00:55:45;;;;;;;7.37;6.50;;;5.80;99.90;;;;;;5031728;28;20450;-70
2022/04/05 00:58:15;;;;;;;7.20;6.13;;;5.90;99.90;;;;;;5031825;28;20473;-71
2022/04/05 01:00:42;;;;;;;9.53;7.30;;;5.90;99.90;;;;;;5031450;28;20446;-70
2022/04/05 01:03:09;;;;;;;8.33;7.40;;;5.90;99.90;;;;;;5031082;28;20493;-70
2022/04/05 01:05:36;;;;;;;6.83;6.13;;;5.90;99.90;;;;;;5031614;28;20453;-70
2022/04/05 01:08:04;;;;;;;7.90;6.80;;;5.90;99.90;;;;;;5031853;28;20775;-70
2022/04/05 01:10:31;;;;;;;8.33;6.47;;;5.90;99.90;;;;;;5031735;28;20816;-70
2022/04/05 01:12:58;;;;;;;6.93;5.30;;;5.90;99.90;;;;;;5031628;28;20449;-70
2022/04/05 01:15:27;;;;;;;10.50;6.90;;;6.00;99.90;;;;;;5030807;28;20453;-70
2022/04/05 01:17:55;;;;;;;9.13;7.83;;;5.90;99.90;;;;;;5030302;28;20581;-70
2022/04/05 01:20:23;;;;;;;7.60;6.47;;;5.90;99.90;;;;;;5031015;28;20465;-70
2022/04/05 01:22:50;;;;;;;7.50;6.07;;;5.90;99.90;;;;;;5031327;28;20555;-71
2022/04/05 01:25:19;;;;;;;6.53;5.93;;;6.00;99.90;;;;;;5030583;28;20460;-72
2022/04/05 01:27:46;;;;;;;8.67;6.70;;;5.90;99.90;;;;;;5031486;28;20470;-72
2022/04/05 01:30:13;;;;;;;7.30;6.57;;;5.90;99.90;;;;;;5030953;28;20480;-72
2022/04/05 01:32:40;;;;;;;7.03;6.27;;;6.00;99.90;;;;;;5030791;28;20456;-72
2022/04/05 01:35:08;;;;;;;8.20;6.93;;;6.00;99.90;;;;;;5030847;28;20895;-72
2022/04/05 01:37:35;;;;;;;7.90;7.00;;;6.00;99.90;;;;;;5031093;28;21007;-72
2022/04/05 01:40:02;;;;;;;7.83;7.00;;;6.00;99.90;;;;;;5030842;28;20976;-73
2022/04/05 01:42:30;;;;;;;6.40;5.80;;;6.00;99.90;;;;;;5030793;28;20491;-72
2022/04/05 01:44:57;;;;;;;7.20;6.50;;;6.00;99.90;;;;;;5030717;28;20450;-72
2022/04/05 01:47:23;;;;;;;7.73;6.83;;;6.00;99.90;;;;;;5031370;28;20511;-72
2022/04/05 01:49:50;;;;;;;8.33;7.13;;;6.00;99.90;;;;;;5030866;28;20504;-73
2022/04/05 01:52:18;;;;;;;8.20;6.60;;;6.10;99.90;;;;;;5029959;28;20499;-74
2022/04/05 01:54:46;;;;;;;7.90;7.10;;;6.00;99.90;;;;;;5030828;28;20465;-72
2022/04/05 01:57:13;;;;;;;7.17;6.47;;;6.00;99.90;;;;;;5030414;28;20454;-73
2022/04/05 01:59:41;;;;;;;7.53;6.83;;;6.10;99.90;;;;;;5031066;28;20480;-72
2022/04/05 02:02:10;;;;;;;8.27;7.30;;;6.10;99.90;;;;;;5030357;28;20453;-72
2022/04/05 02:04:37;;;;;;;7.93;6.60;;;6.00;99.90;;;;;;5030586;28;20480;-72
2022/04/05 02:07:10;;;;;;;7.27;5.23;;;6.10;99.90;;;;;;5029774;28;20484;-73
2022/04/05 02:09:37;;;;;;;7.47;4.80;;;6.10;99.90;;;;;;5030895;28;20470;-72
2022/04/05 02:12:04;;;;;;;8.20;6.17;;;6.10;99.90;;;;;;5030747;28;20453;-72
2022/04/05 02:14:31;;;;;;;8.73;7.03;;;6.10;99.90;;;;;;5030225;28;20457;-72
2022/04/05 02:16:59;;;;;;;6.90;6.20;;;6.10;99.90;;;;;;5030742;28;21003;-72
2022/04/05 02:19:25;;;;;;;7.83;6.50;;;6.10;99.90;;;;;;5030164;28;20965;-73
2022/04/05 02:21:52;;;;;;;6.63;6.03;;;6.10;99.90;;;;;;5030558;28;20461;-72
2022/04/05 02:24:18;;;;;;;7.63;6.57;;;6.10;99.90;;;;;;5030059;28;20559;-73
2022/04/05 02:26:46;;;;;;;7.63;5.90;;;6.10;99.90;;;;;;5030388;28;20494;-72
2022/04/05 02:29:12;;;;;;;6.60;5.87;;;6.20;99.90;;;;;;5030136;28;20474;-73
2022/04/05 02:31:39;;;;;;;7.87;6.60;;;6.20;99.90;;;;;;5030324;28;20445;-72
2022/04/05 02:34:07;;;;;;;6.17;5.60;;;6.20;99.90;;;;;;5029736;28;20480;-72
2022/04/05 02:36:34;;;;;;;6.60;5.70;;;6.20;99.90;;;;;;5030565;28;20453;-72
2022/04/05 02:39:01;;;;;;;7.57;6.53;;;6.30;99.90;;;;;;5030089;28;20495;-72
2022/04/05 02:41:27;;;;;;;6.83;6.20;;;6.20;99.90;;;;;;5030092;28;20540;-73
2022/04/05 02:43:54;;;;;;;7.90;6.70;;;6.20;99.90;;;;;;5030086;28;20489;-73
2022/04/05 02:46:21;;;;;;;6.90;6.20;;;6.30;99.90;;;;;;5034570;28;20449;-72
2022/04/05 02:48:48;;;;;;;6.63;5.53;;;6.30;99.90;;;;;;5033220;28;20480;-72
2022/04/05 02:51:17;;;;;;;6.97;5.90;;;6.30;99.90;;;;;;5033895;28;20458;-72
2022/04/05 02:53:44;;;;;;;6.73;6.00;;;6.30;99.90;;;;;;5032868;28;20446;-72
2022/04/05 02:56:11;;;;;;;6.90;6.20;;;6.30;99.90;;;;;;5034164;28;20453;-73
2022/04/05 02:58:38;;;;;;;9.00;6.83;;;6.30;99.90;;;;;;5033989;28;20468;-72
2022/04/05 03:01:05;;;;;;;6.40;5.80;;;6.30;99.90;;;;;;5032804;28;20507;-72
2022/04/05 03:03:32;;;;;;;7.63;5.97;;;6.30;99.90;;;;;;5018032;28;20477;-72
2022/04/05 03:05:59;;;;;;;8.40;6.50;;;6.30;99.90;;;;;;5033602;28;20454;-72
2022/04/05 03:08:27;;;;;;;7.03;6.33;;;6.30;99.90;;;;;;5033867;28;20477;-72
2022/04/05 03:10:54;;;;;;;7.20;6.50;;;6.30;99.90;;;;;;5033808;28;20628;-72
2022/04/05 03:13:21;;;;;;;6.60;5.90;;;6.30;99.90;;;;;;5033203;28;20452;-72
2022/04/05 03:15:48;;;;;;;6.10;5.50;;;6.30;99.90;;;;;;5033974;28;20460;-73
2022/04/05 03:18:14;;;;;;;7.37;6.00;;;6.30;99.90;;;;;;5033924;28;20519;-72
2022/04/05 03:20:41;;;;;;;6.30;5.70;;;6.30;99.90;;;;;;5033557;28;20449;-72
2022/04/05 03:23:08;;;;;;;7.80;6.10;;;6.30;99.90;;;;;;5033621;28;20833;-72
2022/04/05 03:25:36;;;;;;;7.20;5.77;;;6.30;99.90;;;;;;5032862;28;20865;-73
2022/04/05 03:28:03;;;;;;;5.40;4.80;;;6.30;99.90;;;;;;5033220;28;20491;-73
2022/04/05 03:30:30;;;;;;;6.20;5.60;;;6.20;99.90;;;;;;5033547;28;20492;-72
2022/04/05 03:32:57;;;;;;;6.57;5.60;;;6.30;99.90;;;;;;5033483;28;20449;-72
2022/04/05 03:35:24;;;;;;;6.20;5.60;;;6.30;99.90;;;;;;5033075;28;20875;-72
2022/04/05 03:37:50;;;;;;;6.93;6.13;;;6.30;99.90;;;;;;5032686;28;20863;-72
2022/04/05 03:40:17;;;;;;;6.97;6.27;;;6.30;99.90;;;;;;5033084;28;20460;-73
2022/04/05 03:42:45;;;;;;;5.73;5.20;;;6.30;99.90;;;;;;5032996;28;20489;-72
2022/04/05 03:45:12;;;;;;;12.30;6.20;;;6.30;99.90;;;;;;5032859;28;20457;-72
2022/04/05 03:47:38;;;;;;;5.50;5.00;;;6.30;99.90;;;;;;5032977;28;20457;-72
2022/04/05 03:50:06;;;;;;;5.97;5.37;;;6.40;99.90;;;;;;5032763;28;21055;-72
2022/04/05 03:52:32;;;;;;;6.20;5.60;;;6.40;99.90;;;;;;5032881;28;20818;-72
2022/04/05 03:54:59;;;;;;;6.63;6.00;;;6.40;99.90;;;;;;5032521;28;20950;-72
2022/04/05 03:57:26;;;;;;;6.03;5.50;;;6.40;99.90;;;;;;5032113;28;20512;-72
2022/04/05 03:59:54;;;;;;;5.70;5.20;;;6.50;99.90;;;;;;5032807;28;20461;-73
2022/04/05 04:02:20;;;;;;;5.20;4.80;;;6.40;99.90;;;;;;5032080;28;20519;-72
2022/04/05 04:04:47;;;;;;;5.53;5.03;;;6.40;99.90;;;;;;5032525;28;20480;-74
2022/04/05 04:07:14;;;;;;;6.20;5.70;;;6.40;99.90;;;;;;5025767;28;20461;-72
2022/04/05 04:09:41;;;;;;;6.10;5.47;;;6.40;99.90;;;;;;5032910;28;20470;-72
2022/04/05 04:12:08;;;;;;;5.70;5.20;;;6.40;99.90;;;;;;5032249;28;20457;-73
2022/04/05 04:14:35;;;;;;;5.63;5.13;;;6.50;99.90;;;;;;5031479;28;20445;-73
2022/04/05 04:17:04;;;;;;;5.83;5.23;;;6.50;99.90;;;;;;5032171;28;20458;-72
2022/04/05 04:19:31;;;;;;;5.87;5.23;;;6.50;99.90;;;;;;5031964;28;21024;-72
2022/04/05 04:21:57;;;;;;;5.27;4.80;;;6.50;99.90;;;;;;5032350;28;20511;-72
2022/04/05 04:24:24;;;;;;;5.53;4.83;;;6.50;99.90;;;;;;5032076;28;20489;-73
2022/04/05 04:26:50;;;;;;;5.93;5.33;;;6.50;99.90;;;;;;5032631;28;20862;-72
2022/04/05 04:29:17;;;;;;;10.90;5.70;;;6.50;99.90;;;;;;5031906;28;20477;-72
2022/04/05 04:31:44;;;;;;;6.47;5.50;;;6.50;99.90;;;;;;5031489;28;20917;-72
2022/04/05 04:34:12;;;;;;;7.40;4.70;;;6.60;99.90;;;;;;5031599;28;20457;-73
2022/04/05 04:36:39;;;;;;;6.00;5.40;;;6.60;99.90;;;;;;5032494;28;20480;-72
2022/04/05 04:39:06;;;;;;;5.67;5.17;;;6.60;99.90;;;;;;5032100;28;20478;-72
2022/04/05 04:41:33;;;;;;;5.73;5.23;;;6.60;99.90;;;;;;5032174;28;20981;-72
2022/04/05 04:43:59;;;;;;;5.20;4.70;;;6.60;99.90;;;;;;5031337;28;20646;-73
2022/04/05 04:46:26;;;;;;;5.13;4.73;;;6.70;99.90;;;;;;5031989;28;21157;-72
2022/04/05 04:48:52;;;;;;;5.33;4.83;;;6.70;99.90;;;;;;5031643;28;20965;-72
2022/04/05 04:51:20;;;;;;;5.13;4.47;;;6.70;99.90;;;;;;5031975;28;20938;-72
2022/04/05 04:53:47;;;;;;;4.77;4.37;;;6.70;99.90;;;;;;5032220;28;20449;-72
2022/04/05 04:56:14;;;;;;;5.50;4.70;;;6.70;99.90;;;;;;5031290;28;20457;-72
2022/04/05 04:58:40;;;;;;;5.00;4.17;;;6.70;99.90;;;;;;5031852;28;20527;-72
2022/04/05 05:01:07;;;;;;;5.00;4.50;;;6.70;99.90;;;;;;5031582;28;20461;-71
2022/04/05 05:03:34;;;;;;;5.47;4.37;;;6.70;99.90;;;;;;5031469;28;21028;-72
2022/04/05 05:06:00;;;;;;;6.20;5.60;;;6.70;99.90;;;;;;5031647;28;20881;-72
2022/04/05 05:08:28;;;;;;;5.00;4.50;;;6.80;99.90;;;;;;5031413;28;20531;-73
2022/04/05 05:10:55;;;;;;;4.93;4.47;;;6.80;99.90;;;;;;5031599;28;20454;-72
2022/04/05 05:13:23;;;;;;;4.13;3.83;;;6.80;99.90;;;;;;5031133;28;20453;-72
2022/04/05 05:15:50;;;;;;;4.97;4.03;;;6.80;99.90;;;;;;5022266;28;20835;-73
2022/04/05 05:18:17;;;;;;;4.80;4.30;;;6.80;99.90;;;;;;5022709;28;20535;-72
2022/04/05 05:20:44;;;;;;;4.70;4.30;;;6.90;99.90;;;;;;5028437;28;20453;-72
2022/04/05 05:23:11;;;;;;;5.60;5.10;;;6.90;99.90;;;;;;5030587;28;20453;-73
2022/04/05 05:25:39;;;;;;;5.10;4.70;;;6.90;99.90;;;;;;5030525;28;20480;-72
2022/04/05 05:28:06;;;;;;;5.23;4.73;;;6.90;99.90;;;;;;5031096;28;20473;-73
2022/04/05 05:30:34;;;;;;;8.43;5.30;;;6.90;99.90;;;;;;5030736;28;20503;-74
2022/04/05 05:33:01;;;;;;;5.60;5.10;;;6.90;99.90;;;;;;5029937;28;20453;-75
2022/04/05 05:35:28;;;;;;;6.57;5.33;;;6.90;99.90;;;;;;5029134;28;20446;-73
2022/04/05 05:37:57;;;;;;;5.47;4.97;;;6.90;99.90;;;;;;5030034;28;20531;-73
2022/04/05 05:40:24;;;;;;;6.57;5.23;;;6.90;99.90;;;;;;5029573;28;20450;-73
2022/04/05 05:42:53;;;;;;;5.80;5.20;;;6.90;99.90;;;;;;5030581;28;20437;-73
2022/04/05 05:45:21;;;;;;;6.80;4.90;;;7.00;99.90;;;;;;5030704;28;20914;-73
2022/04/05 05:47:48;;;;;;;5.07;4.57;;;7.00;99.90;;;;;;5030969;28;20477;-73
2022/04/05 05:50:15;;;;;;;6.40;5.00;;;7.00;99.90;;;;;;5030553;28;21035;-73
2022/04/05 05:52:42;;;;;;;5.43;4.90;;;7.00;99.90;;;;;;5031106;28;20938;-73
2022/04/05 05:55:10;;;;;;;5.83;4.80;;;7.00;99.90;;;;;;5029797;28;20461;-73
2022/04/05 05:57:37;;;;;;;5.90;5.20;;;7.00;99.90;;;;;;5030872;28;20550;-73
2022/04/05 06:00:08;;;;;;;6.03;5.33;;;7.00;99.90;;;;;;5031315;28;20457;-75
2022/04/05 06:02:38;;;;;;;7.43;5.33;;;7.10;99.90;;;;;;5031434;28;20523;-75
2022/04/05 06:05:05;;;;;;;5.67;5.17;;;7.10;99.90;;;;;;5030661;28;20496;-75
2022/04/05 06:07:33;;;;;;;6.17;5.10;;;7.10;99.90;;;;;;5033499;28;20454;-75
2022/04/05 06:10:00;;;;;;;5.60;5.10;;;7.10;99.90;;;;;;5030983;28;20524;-75
2022/04/05 06:12:27;;;;;;;5.30;4.80;;;7.10;99.90;;;;;;5031000;28;20865;-75
2022/04/05 06:14:53;;;;;;;8.23;5.27;;;7.10;99.90;;;;;;5030730;28;20446;-75
2022/04/05 06:17:21;;;;;;;7.30;4.60;;;7.20;99.90;;;;;;5031183;28;20453;-76
2022/04/05 06:19:49;;;;;;;5.73;5.23;;;7.20;99.90;;;;;;5030643;28;20485;-76
2022/04/05 06:22:15;;;;;;;4.70;4.30;;;7.20;99.90;;;;;;5030351;28;20468;-75
2022/04/05 06:24:42;;;;;;;5.37;4.87;;;7.20;99.90;;;;;;5030633;28;20485;-76
2022/04/05 06:27:09;;;;;;;5.50;5.00;;;7.20;99.90;;;;;;5030818;28;20507;-75
2022/04/05 06:29:35;;;;;;;5.47;4.97;;;7.20;99.90;;;;;;5031037;28;20480;-75
2022/04/05 06:32:02;;;;;;;5.60;5.20;;;7.20;99.90;;;;;;5030384;28;20511;-76
2022/04/05 06:34:30;;;;;;;5.97;5.37;;;7.30;99.90;;;;;;5031265;28;20793;-76
2022/04/05 06:36:58;;;;;;;5.90;5.30;;;7.30;99.90;;;;;;5030560;28;20458;-76
2022/04/05 06:39:25;;;;;;;5.80;5.20;;;7.30;99.90;;;;;;5030791;28;20473;-76
2022/04/05 06:41:52;;;;;;;5.30;4.80;;;7.30;99.90;;;;;;5030401;28;20533;-76
2022/04/05 06:44:18;;;;;;;5.57;5.00;;;7.30;99.90;;;;;;5030524;28;20485;-76
2022/04/05 06:46:45;;;;;;;5.47;5.00;;;7.40;99.90;;;;;;5030473;28;20457;-76
2022/04/05 06:49:12;;;;;;;5.30;4.80;;;7.40;99.90;;;;;;5030252;28;20535;-76
2022/04/05 06:51:40;;;;;;;5.30;4.80;;;7.40;99.90;;;;;;5030514;28;20797;-75
2022/04/05 06:54:06;;;;;;;4.70;4.30;;;7.40;99.90;;;;;;5030534;28;20453;-75
2022/04/05 06:56:33;;;;;;;5.80;5.00;;;7.40;99.90;;;;;;5030063;28;20511;-76
2022/04/05 06:58:59;;;;;;;5.33;4.83;;;7.50;99.90;;;;;;5029843;28;20465;-76
2022/04/05 07:01:26;;;;;;;5.50;4.97;;;7.50;99.90;;;;;;5030069;28;21021;-76
2022/04/05 07:03:53;;;;;;;5.60;5.10;;;7.50;99.90;;;;;;5037859;28;20488;-76
2022/04/05 07:06:19;;;;;;;5.33;4.80;;;7.60;99.90;;;;;;5029709;28;20461;-75
2022/04/05 07:08:50;;;;;;;4.90;4.50;;;7.60;99.90;;;;;;5030066;28;20618;-76
2022/04/05 07:11:16;;;;;;;5.00;4.50;;;7.70;99.90;;;;;;5029766;28;20544;-76
2022/04/05 07:13:43;;;;;;;8.77;6.20;;;7.70;99.90;;;;;;5029794;28;20457;-76
2022/04/05 07:16:10;;;;;;;5.17;4.67;;;7.70;99.90;;;;;;5030154;28;20453;-76
2022/04/05 07:18:37;;;;;;;5.30;4.77;;;7.70;99.90;;;;;;5030250;28;20523;-75
2022/04/05 07:21:03;;;;;;;4.97;4.53;;;7.70;99.90;;;;;;5030023;28;20559;-77
2022/04/05 07:23:30;;;;;;;5.90;5.30;;;7.70;99.90;;;;;;5029355;28;20942;-76
2022/04/05 07:25:58;;;;;;;5.10;4.70;;;7.70;99.90;;;;;;5029840;28;20559;-76
2022/04/05 07:28:25;;;;;;;6.03;5.50;;;7.80;99.90;;;;;;5029918;28;20509;-76
2022/04/05 07:30:51;;;;;;;4.80;4.40;;;7.80;99.90;;;;;;5030566;28;20449;-76
2022/04/05 07:33:18;;;;;;;5.67;5.07;;;7.80;99.90;;;;;;5033224;28;20503;-75
2022/04/05 07:35:45;;;;;;;5.57;4.87;;;7.90;99.90;;;;;;5033584;28;20456;-75
2022/04/05 07:38:12;;;;;;;5.70;4.80;;;7.90;99.90;;;;;;5033078;28;20474;-76
2022/04/05 07:40:52;;;;;;;8.02;5.00;;;8.00;99.90;;;;;;5032838;28;20936;-74
2022/04/05 07:43:22;;;;;;;4.87;4.43;;;8.20;99.90;;;;;;5032717;28;20213;-75
2022/04/05 07:45:49;;;;;;;5.00;3.93;;;8.30;99.90;;;;;;5033198;28;20485;-74
2022/04/05 07:48:16;;;;;;;5.47;5.00;;;8.30;99.90;;;;;;5032651;28;20469;-75
2022/04/05 07:50:43;;;;;;;7.40;5.80;;;8.20;99.90;;;;;;5033212;28;20532;-76
2022/04/05 07:53:09;;;;;;;5.00;4.50;;;8.20;99.90;;;;;;5031711;28;20452;-75
2022/04/05 07:55:36;;;;;;;5.50;5.00;;;8.30;99.90;;;;;;5032994;28;20651;-75
2022/04/05 07:58:03;;;;;;;5.90;4.07;;;8.30;99.90;;;;;;5032129;28;20989;-76
2022/04/05 08:00:31;;;;;;;4.60;4.20;;;8.50;99.90;;;;;;5032225;28;20484;-75
2022/04/05 08:02:58;;;;;;;4.23;3.83;;;8.50;99.90;;;;;;5033555;28;20931;-75
2022/04/05 08:05:24;;;;;;;4.47;4.00;;;8.50;99.90;;;;;;5048731;28;20562;-75
2022/04/05 08:07:51;;;;;;;4.67;4.23;;;8.40;99.90;;;;;;5032801;28;20523;-75
2022/04/05 08:10:18;;;;;;;3.87;3.57;;;8.50;99.90;;;;;;5033050;28;20495;-76
2022/04/05 08:12:47;;;;;;;4.10;3.80;;;8.60;99.90;;;;;;5032347;28;20658;-75
2022/04/05 08:15:16;;;;;;;4.40;4.00;;;8.60;99.90;;;;;;5031914;28;20503;-75
2022/04/05 08:17:45;;;;;;;4.53;4.13;;;8.70;99.90;;;;;;5032513;28;20893;-75
2022/04/05 08:20:12;;;;;;;4.40;4.00;;;8.60;99.90;;;;;;5032747;28;20457;-76
2022/04/05 08:22:39;;;;;;;4.80;3.67;;;8.70;99.90;;;;;;5032768;28;20445;-75
2022/04/05 08:25:07;;;;;;;3.90;3.60;;;8.80;99.90;;;;;;5032570;28;20489;-75
2022/04/05 08:27:34;;;;;;;3.87;3.57;;;8.90;99.90;;;;;;5022417;28;20449;-74
2022/04/05 08:30:00;;;;;;;3.50;3.20;;;9.00;99.90;;;;;;5031718;28;20560;-75
2022/04/05 08:32:27;;;;;;;3.90;3.20;;;9.10;99.90;;;;;;5031382;28;20457;-75
2022/04/05 08:34:55;;;;;;;3.80;3.47;;;9.10;99.90;;;;;;5031915;28;20449;-75
2022/04/05 08:37:23;;;;;;;3.23;3.03;;;9.20;99.90;;;;;;5031980;28;20503;-74
2022/04/05 08:39:50;;;;;;;4.00;3.60;;;9.20;99.90;;;;;;5031820;28;20476;-74
2022/04/05 08:42:16;;;;;;;3.67;3.40;;;9.20;99.90;;;;;;5030682;28;21003;-74
2022/04/05 08:44:44;;;;;;;3.43;3.23;;;9.20;99.90;;;;;;5031148;28;20532;-74
2022/04/05 08:47:11;;;;;;;3.80;3.50;;;9.10;99.90;;;;;;5031763;28;20461;-75
2022/04/05 08:49:39;;;;;;;4.07;3.70;;;9.10;99.90;;;;;;5031482;28;20473;-75
2022/04/05 08:52:09;;;;;;;3.30;3.00;;;9.10;99.90;;;;;;5031625;28;20499;-75
2022/04/05 08:54:35;;;;;;;3.70;3.40;;;9.20;99.90;;;;;;5031351;28;20449;-75
2022/04/05 08:57:02;;;;;;;5.30;3.37;;;9.20;99.90;;;;;;5031206;28;20546;-75
2022/04/05 08:59:31;;;;;;;3.33;3.13;;;9.20;99.90;;;;;;5030795;28;20534;-74
2022/04/05 09:01:58;;;;;;;3.43;3.23;;;9.30;99.90;;;;;;5031443;28;20537;-75
2022/04/05 09:04:25;;;;;;;3.80;3.50;;;9.30;99.90;;;;;;5043745;28;21138;-75
2022/04/05 09:06:51;;;;;;;3.87;3.50;;;9.30;99.90;;;;;;5034090;28;20449;-75
2022/04/05 09:09:21;;;;;;;4.20;3.90;;;9.40;99.90;;;;;;5030921;28;20481;-76
2022/04/05 09:11:49;;;;;;;4.00;3.70;;;9.40;99.90;;;;;;5030776;28;20480;-75
2022/04/05 09:14:23;;;;;;;3.03;2.83;;;9.50;99.90;;;;;;5031074;28;20499;-75
2022/04/05 09:17:04;;;;;;;3.97;3.67;;;9.50;99.90;;;;;;5031196;28;20535;-74
2022/04/05 09:19:38;;;;;;;3.60;3.40;;;9.50;99.90;;;;;;5031056;28;20519;-75
2022/04/05 09:22:05;;;;;;;3.40;3.20;;;9.60;99.90;;;;;;5030739;28;20962;-74
2022/04/05 09:24:35;;;;;;;3.13;2.93;;;9.70;99.90;;;;;;5030785;28;20476;-73
2022/04/05 09:27:02;;;;;;;3.17;2.97;;;9.70;99.90;;;;;;5030957;28;21013;-74
2022/04/05 09:29:38;;;;;;;3.90;3.63;;;9.80;99.90;;;;;;5030589;28;21016;-74
2022/04/05 09:32:06;;;;;;;3.53;3.20;;;9.90;99.90;;;;;;5030903;28;20505;-74
2022/04/05 09:34:32;;;;;;;3.50;3.20;;;10.00;99.90;;;;;;5030305;28;20449;-74
2022/04/05 09:37:09;;;;;;;3.60;3.30;;;10.10;99.90;;;;;;5030783;28;20457;-74
2022/04/05 09:39:37;;;;;;;3.47;3.17;;;10.20;99.90;;;;;;5030339;28;20556;-74
2022/04/05 09:42:07;;;;;;;2.93;2.70;;;10.30;99.90;;;;;;5031069;28;20449;-74
2022/04/05 09:44:37;;;;;;;3.37;3.13;;;10.30;99.90;;;;;;5030014;28;20453;-74
2022/04/05 09:47:06;;;;;;;3.93;3.63;;;10.50;99.90;;;;;;5030368;28;20458;-74
2022/04/05 09:49:35;;;;;;;3.77;3.47;;;10.60;99.90;;;;;;5030070;28;20492;-73
2022/04/05 09:52:02;;;;;;;3.03;2.83;;;10.60;99.90;;;;;;5030577;28;20453;-74
2022/04/05 09:54:31;;;;;;;3.17;2.97;;;10.90;99.90;;;;;;5029244;28;20945;-74
2022/04/05 09:57:06;;;;;;;2.97;2.70;;;11.20;99.90;;;;;;5030390;28;20453;-73
2022/04/05 09:59:43;;;;;;;3.47;3.17;;;11.20;99.90;;;;;;5029801;28;20535;-73
2022/04/05 10:02:12;;;;;;;3.03;2.83;;;11.20;99.90;;;;;;5030120;28;20480;-74
2022/04/05 10:05:01;;;;;;;3.10;2.90;;;11.20;99.90;;;;;;5044613;28;20459;-74
2022/04/05 10:07:29;;;;;;;2.90;2.70;;;11.00;99.90;;;;;;5036003;28;20475;-73
2022/04/05 10:09:56;;;;;;;3.17;2.97;;;11.20;99.90;;;;;;5030088;28;20451;-73
2022/04/05 10:12:24;;;;;;;3.03;2.83;;;11.60;99.90;;;;;;5029874;28;20543;-73
2022/04/05 10:14:51;;;;;;;6.23;3.60;;;12.00;99.90;;;;;;5029131;28;20496;-73
2022/04/05 10:17:20;;;;;;;4.33;3.50;;;12.00;99.90;;;;;;5028935;28;20457;-74
2022/04/05 10:19:50;;;;;;;2.47;2.37;;;11.80;99.90;;;;;;5029942;28;20486;-74
2022/04/05 10:22:18;;;;;;;4.50;3.13;;;11.50;99.90;;;;;;5030345;28;20870;-73
2022/04/05 10:24:46;;;;;;;3.17;2.87;;;11.40;99.90;;;;;;5029069;28;20950;-73
2022/04/05 10:27:14;;;;;;;3.03;2.83;;;11.60;99.90;;;;;;5029819;28;20529;-74
2022/04/05 10:29:43;;;;;;;4.00;3.10;;;11.60;99.90;;;;;;5029470;28;20469;-74
2022/04/05 10:32:17;;;;;;;3.00;2.80;;;11.60;99.90;;;;;;5029746;28;20564;-73
2022/04/05 10:34:50;;;;;;;2.73;2.63;;;11.60;99.90;;;;;;5029855;28;20449;-73
2022/04/05 10:37:18;;;;;;;5.00;4.50;;;11.80;99.90;;;;;;5030206;28;20457;-73
2022/04/05 10:40:05;;;;;;;2.90;2.70;;;11.70;99.90;;;;;;5029052;28;20465;-74
2022/04/05 10:42:35;;;;;;;3.97;3.50;;;11.70;99.90;;;;;;5029249;28;20457;-74
2022/04/05 10:45:13;;;;;;;4.73;3.33;;;11.60;99.90;;;;;;5029630;28;20489;-74
2022/04/05 10:48:09;;;;;;;3.50;3.27;;;11.50;99.90;;;;;;5030296;28;20518;-74
2022/04/05 10:50:36;;;;;;;2.83;2.63;;;11.40;99.90;;;;;;5015235;28;20853;-75
2022/04/05 10:53:18;;;;;;;3.17;2.87;;;11.20;99.90;;;;;;5029978;28;20507;-74
2022/04/05 10:56:14;;;;;;;3.37;3.07;;;11.20;99.90;;;;;;5029276;28;20441;-73
2022/04/05 10:59:02;;;;;;;3.07;2.87;;;11.00;99.90;;;;;;5029837;28;20477;-74
2022/04/05 11:01:42;;;;;;;3.23;3.00;;;11.10;99.90;;;;;;5030111;28;20520;-74
2022/04/05 11:04:33;;;;;;;5.83;3.00;;;11.20;99.90;;;;;;5040759;28;20460;-74
2022/04/05 11:07:13;;;;;;;3.30;3.10;;;11.20;99.90;;;;;;5051742;28;20620;-74
2022/04/05 11:09:48;;;;;;;2.90;2.70;;;11.50;99.90;;;;;;5031700;28;20899;-74
2022/04/05 11:12:19;;;;;;;2.93;2.57;;;11.60;99.90;;;;;;5034731;28;20483;-74
2022/04/05 11:14:49;;;;;;;2.77;2.57;;;11.70;99.90;;;;;;5018313;28;20460;-74
2022/04/05 11:17:19;;;;;;;5.90;2.57;;;11.80;99.90;;;;;;5033147;28;20965;-74
2022/04/05 11:19:47;;;;;;;3.50;3.10;;;11.70;99.90;;;;;;5033557;28;20531;-74
2022/04/05 11:22:29;;;;;;;3.10;2.80;;;11.60;99.90;;;;;;5034057;28;20523;-74
2022/04/05 11:24:57;;;;;;;3.20;2.90;;;11.60;99.90;;;;;;5033249;28;20453;-74
2022/04/05 11:27:32;;;;;;;3.10;2.80;;;11.60;99.90;;;;;;5033133;28;20458;-74
2022/04/05 11:30:40;;;;;;;3.27;3.00;;;11.70;99.90;;;;;;5033644;28;20514;-74
2022/04/05 11:33:39;;;;;;;4.03;2.70;;;11.60;99.90;;;;;;5018188;28;20460;-74
2022/04/05 11:36:09;;;;;;;3.43;2.80;;;11.80;99.90;;;;;;5033125;28;20548;-74
2022/04/05 11:38:38;;;;;;;2.60;2.40;;;11.80;99.90;;;;;;5033449;28;20495;-74
2022/04/05 11:41:09;;;;;;;2.97;2.77;;;11.80;99.90;;;;;;5032979;28;20453;-74
2022/04/05 11:43:41;;;;;;;3.00;2.80;;;11.80;99.90;;;;;;5033497;28;20455;-74
2022/04/05 11:46:10;;;;;;;3.57;2.60;;;11.90;99.90;;;;;;5033245;28;20516;-74
2022/04/05 11:48:42;;;;;;;3.13;2.93;;;12.10;99.90;;;;;;5033727;28;20555;-75
2022/04/05 11:51:12;;;;;;;3.10;2.90;;;12.20;99.90;;;;;;5034640;28;20457;-75
2022/04/05 11:53:39;;;;;;;2.93;2.73;;;12.40;99.90;;;;;;5034721;28;20461;-75
2022/04/05 11:56:16;;;;;;;2.87;2.67;;;12.40;99.90;;;;;;5032838;28;20449;-74
2022/04/05 11:58:47;;;;;;;2.90;2.70;;;12.40;99.90;;;;;;5014014;28;20480;-75
2022/04/05 12:01:15;;;;;;;4.00;2.80;;;12.40;99.90;;;;;;5032713;28;20773;-75
2022/04/05 12:03:48;;;;;;;3.20;2.90;;;12.40;99.90;;;;;;5035285;28;20457;-74
2022/04/05 12:06:18;;;;;;;3.60;2.90;;;12.60;99.90;;;;;;5033252;28;20532;-75
2022/04/05 12:08:46;;;;;;;2.60;2.40;;;12.60;99.90;;;;;;5032831;28;20999;-74
2022/04/05 12:11:16;;;;;;;2.30;2.20;;;12.60;99.90;;;;;;5032192;28;20453;-75
2022/04/05 12:13:52;;;;;;;6.60;2.70;;;12.30;99.90;;;;;;5020842;28;20485;-75
2022/04/05 12:16:19;;;;;;;3.30;2.50;;;12.30;99.90;;;;;;5032808;28;20811;-74
2022/04/05 12:18:47;;;;;;;2.60;2.50;;;12.30;99.90;;;;;;5032146;28;20848;-74
2022/04/05 12:21:14;;;;;;;2.40;2.30;;;12.50;99.90;;;;;;5032267;28;20519;-74
2022/04/05 12:23:42;;;;;;;2.40;2.30;;;12.60;99.90;;;;;;5032473;28;20453;-73
2022/04/05 12:26:12;;;;;;;2.57;2.47;;;12.60;99.90;;;;;;5032440;28;20576;-74
2022/04/05 12:28:40;;;;;;;2.50;2.30;;;12.60;99.90;;;;;;5032724;28;20477;-74
2022/04/05 12:31:16;;;;;;;2.73;2.53;;;12.60;99.90;;;;;;5031716;28;22000;-73
2022/04/05 12:33:54;;;;;;;2.70;2.60;;;12.60;99.90;;;;;;5017366;28;20449;-73
2022/04/05 12:36:22;;;;;;;2.80;2.60;;;12.60;99.90;;;;;;5032316;28;20457;-75
2022/04/05 12:38:49;;;;;;;2.67;2.40;;;12.60;99.90;;;;;;5032628;28;20524;-74
2022/04/05 12:41:16;;;;;;;3.97;2.20;;;12.50;99.90;;;;;;5031647;28;20460;-72
2022/04/05 12:43:44;;;;;;;2.60;2.40;;;12.30;99.90;;;;;;5031936;28;20456;-74
2022/04/05 12:46:12;;;;;;;2.30;2.20;;;12.10;99.90;;;;;;5031905;28;21319;-74
2022/04/05 12:48:40;;;;;;;2.60;2.40;;;12.00;99.90;;;;;;5032286;28;20549;-73
2022/04/05 12:51:09;;;;;;;3.30;2.57;;;11.80;99.90;;;;;;5031712;28;20474;-74
2022/04/05 12:53:38;;;;;;;2.73;2.53;;;11.70;99.90;;;;;;5031971;28;20531;-74
2022/04/05 12:56:13;;;;;;;3.60;3.30;;;11.60;99.90;;;;;;5031565;28;20945;-73
2022/04/05 12:58:45;;;;;;;4.53;2.30;;;11.60;99.90;;;;;;5031963;28;21350;-74
2022/04/05 13:01:23;;;;;;;2.30;2.20;;;11.60;99.90;;;;;;5032037;28;20461;-74
2022/04/05 13:03:56;;;;;;;2.93;2.70;;;11.60;99.90;;;;;;5040080;28;20476;-74